createdAt,value
2019-04-26T00:04:33.825Z,59.45
2019-04-26T00:09:39.585Z,59.61
2019-04-26T00:14:54.842Z,59.96
2019-04-26T00:19:59.128Z,59.96
2019-04-26T00:25:03.549Z,60.12
2019-04-26T00:30:07.713Z,60.29
2019-04-26T00:35:12.922Z,60.50
2019-04-26T00:40:18.229Z,60.30
2019-04-26T00:45:23.825Z,60.42
2019-04-26T00:50:28.087Z,60.72
2019-04-26T00:55:34.687Z,60.72
2019-04-26T01:00:38.765Z,60.72
2019-04-26T01:05:42.768Z,60.59
2019-04-26T01:10:46.851Z,60.75
2019-04-26T01:15:50.850Z,61.01
2019-04-26T01:20:57.879Z,61.01
2019-04-26T01:26:14.395Z,61.25
2019-04-26T01:31:19.872Z,61.44
2019-04-26T01:36:26.930Z,61.68
2019-04-26T01:41:40.079Z,61.64
2019-04-26T01:46:46.648Z,61.51
2019-04-26T01:51:58.427Z,61.84
2019-04-26T01:57:04.986Z,61.83
2019-04-26T02:02:25.910Z,61.73
2019-04-26T02:07:38.722Z,61.92
2019-04-26T02:12:45.950Z,61.82
2019-04-26T02:17:52.178Z,61.99
2019-04-26T02:23:06.718Z,62.05
2019-04-26T02:28:10.801Z,62.22
2019-04-26T02:33:15.550Z,62.24
2019-04-26T02:38:20.192Z,62.43
2019-04-26T02:43:28.633Z,62.35
2019-04-26T02:48:51.652Z,62.36
2019-04-26T02:54:04.837Z,62.36
2019-04-26T02:59:38.187Z,62.64
2019-04-26T03:04:44.826Z,62.75
2019-04-26T03:09:51.832Z,63.06
2019-04-26T03:15:13.693Z,63.32
2019-04-26T03:20:19.164Z,63.94
2019-04-26T03:25:32.827Z,63.94
2019-04-26T03:31:00.742Z,64.04
2019-04-26T03:36:25.699Z,63.50
2019-04-26T03:42:02.108Z,63.50
2019-04-26T03:47:10.035Z,64.07
2019-04-26T03:52:23.602Z,63.51
2019-04-26T03:57:41.846Z,63.03
2019-04-26T04:03:05.290Z,62.70
2019-04-26T04:08:13.264Z,62.70
2019-04-26T04:14:00.573Z,61.97
2019-04-26T04:19:13.787Z,61.93
2019-04-26T04:24:28.438Z,61.36
2019-04-26T04:29:50.024Z,61.23
2019-04-26T04:34:53.621Z,61.23
2019-04-26T04:40:19.378Z,60.07
2019-04-26T04:46:12.901Z,59.92
2019-04-26T04:51:42.894Z,59.73
2019-04-26T04:57:30.605Z,59.73
2019-04-26T05:02:53.446Z,59.60
2019-04-26T05:08:21.073Z,59.68
2019-04-26T05:13:58.645Z,59.68
2019-04-26T05:19:39.864Z,59.26
2019-04-26T05:25:19.750Z,58.86
2019-04-26T05:31:17.666Z,58.77
2019-04-26T05:36:31.280Z,58.89
2019-04-26T05:42:22.082Z,58.88
2019-04-26T05:48:03.174Z,58.88
2019-04-26T05:53:59.531Z,58.58
2019-04-26T05:59:37.880Z,58.58
2019-04-26T06:05:05.797Z,58.30
2019-04-26T06:10:25.049Z,58.38
2019-04-26T06:15:53.067Z,58.38
2019-04-26T06:21:13.843Z,58.24
2019-04-26T06:27:10.324Z,58.36
2019-04-26T06:32:13.243Z,58.16
2019-04-26T06:37:35.458Z,58.14
2019-04-26T06:43:26.792Z,57.98
2019-04-26T06:49:13.891Z,56.53
2019-04-26T06:54:31.185Z,57.86
2019-04-26T06:59:52.638Z,57.86
2019-04-26T07:05:20.461Z,58.66
2019-04-26T07:10:58.193Z,58.98
2019-04-26T07:16:41.684Z,58.98
2019-04-26T07:22:35.868Z,59.18
2019-04-26T07:28:06.412Z,59.61
2019-04-26T07:33:30.402Z,59.83
2019-04-26T07:39:19.467Z,60.74
2019-04-26T07:45:02.068Z,61.11
2019-04-26T07:50:48.804Z,61.97
2019-04-26T07:56:00.594Z,58.68
2019-04-26T08:01:31.817Z,58.21
2019-04-26T08:06:43.907Z,57.63
2019-04-26T08:11:55.073Z,57.00
2019-04-26T08:17:37.398Z,57.04
2019-04-26T08:22:45.038Z,57.75
2019-04-26T08:27:51.701Z,57.98
2019-04-26T08:33:02.057Z,57.62
2019-04-26T08:38:16.211Z,57.89
2019-04-26T08:43:50.072Z,57.89
2019-04-26T08:49:06.749Z,57.87
2019-04-26T08:54:19.185Z,57.87
2019-04-26T08:59:28.897Z,58.10
2019-04-26T09:04:41.312Z,57.88
2019-04-26T09:09:57.026Z,57.88
2019-04-26T09:14:57.663Z,57.78
2019-04-26T09:20:07.119Z,58.00
2019-04-26T09:25:22.601Z,58.00
2019-04-26T09:30:34.290Z,57.89
2019-04-26T09:35:35.196Z,58.54
2019-04-26T09:40:39.471Z,58.25
2019-04-26T09:46:01.231Z,57.76
2019-04-26T09:51:05.888Z,57.76
2019-04-26T09:56:09.887Z,58.43
2019-04-26T10:01:14.039Z,58.28
2019-04-26T10:06:18.204Z,58.28
2019-04-26T10:11:24.628Z,57.71
2019-04-26T10:16:37.711Z,57.41
2019-04-26T10:21:41.745Z,57.54
2019-04-26T10:26:45.759Z,57.37
2019-04-26T10:31:51.789Z,57.37
2019-04-26T10:36:57.058Z,58.19
2019-04-26T10:42:01.317Z,56.27
2019-04-26T10:47:06.043Z,56.27
2019-04-26T10:52:17.111Z,56.97
2019-04-26T10:57:29.408Z,56.46
2019-04-26T11:02:33.575Z,56.46
2019-04-26T11:07:37.580Z,58.73
2019-04-26T11:12:43.321Z,58.78
2019-04-26T11:17:50.020Z,58.78
2019-04-26T11:22:53.309Z,58.50
2019-04-26T11:27:57.410Z,58.52
2019-04-26T11:33:01.396Z,57.48
2019-04-26T11:38:05.656Z,57.86
2019-04-26T11:43:09.639Z,57.86
2019-04-26T11:48:14.066Z,56.90
2019-04-26T11:53:18.062Z,56.90
2019-04-26T11:58:23.599Z,57.52
2019-04-26T12:03:27.837Z,57.59
2019-04-26T12:08:41.305Z,57.59
2019-04-26T12:13:45.403Z,57.20
2019-04-26T12:18:49.414Z,56.60
2019-04-26T12:23:55.440Z,57.42
2019-04-26T12:28:59.225Z,56.55
2019-04-26T12:34:03.229Z,57.08
2019-04-26T12:39:09.021Z,56.27
2019-04-26T12:44:14.777Z,56.54
2019-04-26T12:49:20.358Z,56.23
2019-04-26T12:54:25.053Z,57.41
2019-04-26T12:59:29.119Z,57.41
2019-04-26T13:04:36.132Z,57.24
2019-04-26T13:09:40.840Z,57.29
2019-04-26T13:15:02.626Z,58.45
2019-04-26T13:20:07.011Z,57.03
2019-04-26T13:25:20.247Z,57.89
2019-04-26T13:30:17.273Z,57.93
2019-04-26T13:35:21.440Z,56.62
2019-04-26T13:40:29.250Z,56.62
2019-04-26T13:45:53.352Z,57.14
2019-04-26T13:51:05.631Z,58.49
2019-04-26T13:56:08.620Z,57.80
2019-04-26T14:01:14.658Z,58.22
2019-04-26T14:06:19.013Z,57.45
2019-04-26T14:11:28.078Z,57.82
2019-04-26T14:16:28.825Z,58.76
2019-04-26T14:21:34.483Z,58.63
2019-04-26T14:26:43.921Z,58.85
2019-04-26T14:31:51.412Z,59.06
2019-04-26T14:37:05.964Z,59.94
2019-04-26T14:41:59.870Z,60.52
2019-04-26T14:47:13.511Z,60.52
2019-04-26T14:52:09.782Z,60.23
2019-04-26T14:57:21.088Z,59.92
2019-04-26T15:02:37.040Z,60.46
2019-04-26T15:07:49.456Z,60.81
2019-04-26T15:12:48.896Z,60.39
2019-04-26T15:17:53.637Z,60.39
2019-04-26T15:22:58.471Z,61.07
2019-04-26T15:28:02.591Z,61.25
2019-04-26T15:33:08.947Z,61.30
2019-04-26T15:38:13.100Z,61.40
2019-04-26T15:43:36.089Z,62.59
2019-04-26T15:49:12.535Z,61.04
2019-04-26T15:54:17.930Z,58.07
2019-04-26T15:59:25.283Z,57.81
2019-04-26T16:04:28.396Z,57.96
2019-04-26T16:09:32.676Z,57.63
2019-04-26T16:14:37.117Z,58.63
2019-04-26T16:19:41.286Z,58.63
2019-04-26T16:24:45.364Z,58.58
2019-04-26T16:30:16.687Z,58.14
2019-04-26T16:35:25.380Z,58.21
2019-04-26T16:40:27.072Z,58.40
2019-04-26T16:45:32.752Z,58.88
2019-04-26T16:50:44.007Z,58.88
2019-04-26T16:55:50.593Z,58.50
2019-04-26T17:00:54.761Z,58.46
2019-04-26T17:06:04.658Z,58.11
2019-04-26T17:11:00.780Z,58.51
2019-04-26T17:16:05.799Z,58.31
2019-04-26T17:21:10.033Z,58.02
2019-04-26T17:26:33.753Z,58.16
2019-04-26T17:31:37.979Z,57.94
2019-04-26T17:36:42.058Z,57.86
2019-04-26T17:41:50.739Z,57.94
2019-04-26T17:46:56.250Z,57.90
2019-04-26T17:51:59.832Z,57.99
2019-04-26T17:57:04.335Z,57.83
2019-04-26T18:02:24.112Z,57.83
2019-04-26T18:07:37.764Z,57.87
2019-04-26T18:12:20.819Z,58.25
2019-04-26T18:18:23.322Z,57.81
2019-04-26T18:23:01.218Z,57.81
2019-04-26T18:28:08.777Z,57.96
2019-04-26T18:33:13.335Z,58.06
2019-04-26T18:38:17.288Z,58.03
2019-04-26T18:43:24.074Z,58.25
2019-04-26T18:48:27.145Z,57.94
2019-04-26T18:53:49.003Z,57.87
2019-04-26T18:58:55.639Z,57.87
2019-04-26T19:04:00.287Z,58.16
2019-04-26T19:09:06.738Z,58.44
2019-04-26T19:14:32.579Z,58.44
2019-04-26T19:19:54.555Z,57.81
2019-04-26T19:24:58.560Z,58.25
2019-04-26T19:30:08.923Z,58.25
2019-04-26T19:35:12.192Z,58.14
2019-04-26T19:40:15.291Z,58.01
2019-04-26T19:45:35.252Z,58.01
2019-04-26T19:50:50.225Z,58.16
2019-04-26T19:56:08.792Z,58.18
2019-04-26T20:01:16.538Z,58.41
2019-04-26T20:06:19.879Z,58.61
2019-04-26T20:11:24.095Z,58.34
2019-04-26T20:16:28.177Z,58.37
2019-04-26T20:21:34.166Z,58.29
2019-04-26T20:26:41.942Z,58.15
2019-04-26T20:32:09.147Z,58.15
2019-04-26T20:37:16.120Z,58.37
2019-04-26T20:42:19.013Z,58.35
2019-04-26T20:47:23.195Z,58.28
2019-04-26T20:52:27.328Z,58.34
2019-04-26T20:57:34.380Z,58.58
2019-04-26T21:02:37.218Z,58.29
2019-04-26T21:07:41.961Z,58.61
2019-04-26T21:12:51.142Z,58.33
2019-04-26T21:17:56.744Z,58.33
2019-04-26T21:23:02.409Z,58.38
2019-04-26T21:28:11.565Z,58.66
2019-04-26T21:33:28.741Z,58.53
2019-04-26T21:38:36.439Z,58.48
2019-04-26T21:43:46.427Z,58.48
2019-04-26T21:48:50.454Z,58.64
2019-04-26T21:53:54.459Z,58.51
2019-04-26T21:58:58.498Z,58.51
2019-04-26T22:04:03.024Z,58.82
2019-04-26T22:09:35.045Z,58.88
2019-04-26T22:14:36.842Z,58.76
2019-04-26T22:20:12.460Z,58.50
2019-04-26T22:25:12.948Z,58.90
2019-04-26T22:30:28.278Z,58.93
2019-04-26T22:35:28.812Z,58.93
2019-04-26T22:40:33.527Z,58.89
2019-04-26T22:45:50.863Z,58.72
2019-04-26T22:50:58.624Z,59.04
2019-04-26T22:56:01.435Z,59.04
2019-04-26T23:01:06.627Z,59.01
2019-04-26T23:06:12.750Z,59.14
2019-04-26T23:11:17.258Z,58.94
2019-04-26T23:16:55.908Z,59.26
2019-04-26T23:21:55.580Z,59.28
2019-04-26T23:26:57.957Z,59.20
2019-04-26T23:32:03.594Z,59.20
2019-04-26T23:37:07.972Z,59.36
2019-04-26T23:42:12.340Z,59.03
2019-04-26T23:47:21.087Z,59.54
2019-04-26T23:52:24.533Z,59.71
2019-04-26T23:57:31.347Z,59.37
